createdAt,value
2018-05-03T00:00:36.287Z,10.23
2018-05-03T00:03:04.605Z,9.73
2018-05-03T00:05:32.687Z,8.48
2018-05-03T00:08:00.902Z,9.85
2018-05-03T00:10:28.986Z,10.00
2018-05-03T00:12:57.281Z,9.60
2018-05-03T00:15:25.367Z,9.68
2018-05-03T00:17:53.550Z,9.82
2018-05-03T00:20:21.642Z,9.27
2018-05-03T00:22:49.843Z,9.20
2018-05-03T00:25:18.161Z,9.30
2018-05-03T00:27:46.445Z,8.80
2018-05-03T00:30:14.522Z,9.63
2018-05-03T00:32:42.726Z,9.95
2018-05-03T00:35:11.850Z,10.02
2018-05-03T00:37:40.031Z,10.18
2018-05-03T00:40:08.433Z,9.35
2018-05-03T00:42:36.721Z,9.40
2018-05-03T00:45:05.027Z,8.80
2018-05-03T00:47:33.328Z,8.82
2018-05-03T00:50:01.282Z,9.50
2018-05-03T00:52:29.630Z,9.40
2018-05-03T00:54:57.928Z,9.15
2018-05-03T00:57:26.525Z,8.98
2018-05-03T00:59:54.829Z,9.20
2018-05-03T01:02:23.115Z,8.30
2018-05-03T01:04:51.202Z,9.18
2018-05-03T01:07:19.605Z,8.70
2018-05-03T01:09:47.781Z,9.27
2018-05-03T01:12:15.985Z,8.68
2018-05-03T01:14:44.184Z,8.32
2018-05-03T01:17:12.366Z,9.20
2018-05-03T01:19:40.465Z,9.13
2018-05-03T01:22:08.655Z,7.85
2018-05-03T01:24:36.863Z,8.35
2018-05-03T01:27:05.143Z,7.80
2018-05-03T01:29:33.449Z,8.23
2018-05-03T01:32:01.597Z,8.93
2018-05-03T01:34:29.842Z,10.18
2018-05-03T01:36:59.585Z,8.70
2018-05-03T01:39:27.860Z,9.18
2018-05-03T01:41:56.162Z,8.98
2018-05-03T01:44:24.467Z,9.63
2018-05-03T01:46:52.543Z,9.15
2018-05-03T01:49:20.727Z,9.50
2018-05-03T01:51:48.922Z,8.65
2018-05-03T01:54:17.129Z,9.68
2018-05-03T01:56:45.521Z,8.90
2018-05-03T01:59:13.845Z,9.48
2018-05-03T02:01:42.124Z,9.75
2018-05-03T02:04:10.432Z,8.02
2018-05-03T02:06:38.704Z,8.88
2018-05-03T02:09:06.933Z,9.25
2018-05-03T02:11:35.023Z,8.55
2018-05-03T02:14:03.328Z,8.80
2018-05-03T02:16:31.702Z,8.98
2018-05-03T02:18:59.999Z,9.00
2018-05-03T02:21:28.191Z,9.75
2018-05-03T02:23:56.395Z,8.00
2018-05-03T02:26:24.781Z,9.30
2018-05-03T02:28:52.964Z,9.32
2018-05-03T02:31:21.172Z,9.00
2018-05-03T02:33:49.364Z,8.50
2018-05-03T02:36:17.446Z,8.70
2018-05-03T02:38:45.647Z,8.45
2018-05-03T02:41:13.862Z,8.13
2018-05-03T02:43:42.244Z,7.60
2018-05-03T02:46:10.550Z,8.85
2018-05-03T02:48:38.843Z,8.40
2018-05-03T02:51:06.964Z,8.85
2018-05-03T02:53:35.083Z,8.90
2018-05-03T02:56:03.411Z,8.43
2018-05-03T02:58:31.744Z,8.88
2018-05-03T03:14:12.638Z,9.35
2018-05-03T03:16:40.668Z,8.75
2018-05-03T03:19:08.925Z,8.98
2018-05-03T03:21:37.219Z,8.40
2018-05-03T03:24:05.522Z,8.10
2018-05-03T03:26:33.811Z,8.82
2018-05-03T03:29:02.109Z,9.30
2018-05-03T03:31:30.302Z,8.38
2018-05-03T03:33:58.502Z,10.15
2018-05-03T03:36:26.590Z,8.02
2018-05-03T03:38:54.781Z,7.47
2018-05-03T03:41:22.869Z,9.05
2018-05-03T03:43:51.120Z,8.32
2018-05-03T03:46:19.784Z,8.90
2018-05-03T03:48:47.969Z,8.80
2018-05-03T03:51:16.174Z,8.85
2018-05-03T03:53:44.362Z,8.75
2018-05-03T03:56:12.660Z,8.10
2018-05-03T03:58:40.841Z,9.23
2018-05-03T04:01:09.161Z,9.00
2018-05-03T04:03:37.456Z,8.52
2018-05-03T04:06:05.977Z,8.00
2018-05-03T04:08:34.546Z,7.53
2018-05-03T04:11:02.746Z,8.52
2018-05-03T04:13:31.035Z,8.05
2018-05-03T04:15:59.266Z,8.40
2018-05-03T04:18:27.423Z,9.25
2018-05-03T04:20:55.536Z,9.18
2018-05-03T04:23:23.705Z,9.15
2018-05-03T04:25:51.915Z,9.35
2018-05-03T04:28:20.128Z,9.20
2018-05-03T04:30:48.423Z,9.52
2018-05-03T04:33:16.821Z,11.15
2018-05-03T04:35:45.195Z,9.43
2018-05-03T04:38:13.402Z,8.20
2018-05-03T04:40:41.689Z,8.48
2018-05-03T04:43:09.896Z,8.10
2018-05-03T04:45:38.271Z,9.20
2018-05-03T04:48:06.484Z,9.02
2018-05-03T04:50:34.672Z,9.27
2018-05-03T04:53:02.762Z,8.82
2018-05-03T04:55:30.961Z,9.95
2018-05-03T04:57:59.267Z,10.68
2018-05-03T05:00:27.672Z,9.10
2018-05-03T05:02:56.048Z,10.35
2018-05-03T05:05:24.271Z,9.35
2018-05-03T05:07:52.570Z,9.15
2018-05-03T05:10:21.248Z,8.60
2018-05-03T05:12:49.446Z,8.30
2018-05-03T05:15:17.627Z,8.43
2018-05-03T05:17:45.856Z,8.02
2018-05-03T05:20:13.879Z,8.00
2018-05-03T05:22:42.328Z,8.82
2018-05-03T05:25:10.607Z,7.65
2018-05-03T05:27:39.027Z,8.48
2018-05-03T05:30:07.216Z,7.85
2018-05-03T05:32:35.520Z,8.45
2018-05-03T05:35:03.730Z,7.82
2018-05-03T05:37:32.010Z,7.12
2018-05-03T05:40:00.187Z,7.65
2018-05-03T05:42:28.382Z,8.38
2018-05-03T05:44:56.591Z,7.35
2018-05-03T05:47:24.826Z,7.95
2018-05-03T05:49:53.091Z,9.35
2018-05-03T05:52:21.375Z,8.88
2018-05-03T05:54:49.558Z,9.60
2018-05-03T05:57:17.653Z,8.52
2018-05-03T05:59:45.993Z,8.50
2018-05-03T06:02:14.141Z,9.20
2018-05-03T06:04:42.353Z,10.00
2018-05-03T06:07:10.648Z,7.87
2018-05-03T06:09:38.826Z,9.48
2018-05-03T06:12:07.043Z,9.68
2018-05-03T06:14:35.230Z,8.95
2018-05-03T06:17:03.560Z,9.50
2018-05-03T06:19:32.028Z,9.23
2018-05-03T06:22:00.335Z,8.25
2018-05-03T06:24:28.724Z,9.80
2018-05-03T06:26:56.920Z,8.20
2018-05-03T06:29:25.105Z,8.98
2018-05-03T06:31:53.198Z,9.40
2018-05-03T06:34:21.414Z,10.50
2018-05-03T06:36:49.794Z,9.02
2018-05-03T06:39:18.201Z,9.95
2018-05-03T06:41:46.522Z,9.80
2018-05-03T06:44:14.898Z,10.98
2018-05-03T06:46:43.229Z,10.55
2018-05-03T06:49:11.711Z,9.77
2018-05-03T06:51:39.867Z,11.20
2018-05-03T06:54:08.189Z,12.25
2018-05-03T06:56:36.582Z,10.82
2018-05-03T06:59:05.120Z,11.35
2018-05-03T07:01:33.983Z,10.77
2018-05-03T07:04:02.135Z,11.20
2018-05-03T07:06:30.482Z,10.85
2018-05-03T07:08:58.891Z,10.48
2018-05-03T07:11:27.455Z,10.93
2018-05-03T07:13:55.683Z,11.43
2018-05-03T07:16:24.035Z,10.88
2018-05-03T07:18:51.956Z,11.80
2018-05-03T07:21:20.164Z,12.07
2018-05-03T07:23:48.519Z,10.68
2018-05-03T07:26:16.629Z,11.93
2018-05-03T07:28:44.741Z,10.15
2018-05-03T07:31:12.941Z,10.85
2018-05-03T07:33:41.020Z,10.30
2018-05-03T07:36:09.217Z,11.27
2018-05-03T07:38:37.429Z,10.07
2018-05-03T07:41:05.589Z,10.43
2018-05-03T07:43:33.698Z,9.85
2018-05-03T07:46:01.798Z,11.65
2018-05-03T07:48:29.985Z,8.73
2018-05-03T07:50:58.205Z,9.52
2018-05-03T07:53:26.682Z,10.05
2018-05-03T07:55:54.836Z,8.35
2018-05-03T07:58:23.373Z,9.40
2018-05-03T08:00:51.684Z,10.05
2018-05-03T08:03:19.819Z,8.70
2018-05-03T08:05:48.366Z,9.70
2018-05-03T08:08:16.679Z,8.55
2018-05-03T08:10:44.957Z,7.47
2018-05-03T08:13:13.251Z,6.90
2018-05-03T08:15:41.973Z,6.37
2018-05-03T08:18:10.054Z,6.90
2018-05-03T08:20:38.252Z,6.93
2018-05-03T08:23:06.458Z,6.00
2018-05-03T08:25:34.871Z,5.93
2018-05-03T08:28:03.291Z,6.80
2018-05-03T08:30:31.541Z,5.80
2018-05-03T08:32:59.727Z,5.90
2018-05-03T08:35:27.937Z,5.40
2018-05-03T08:37:56.237Z,5.13
2018-05-03T08:40:24.435Z,5.80
2018-05-03T08:42:52.812Z,5.90
2018-05-03T08:45:21.119Z,6.63
2018-05-03T08:47:49.656Z,6.63
2018-05-03T08:50:18.237Z,5.80
2018-05-03T08:52:46.733Z,5.83
2018-05-03T08:55:15.258Z,6.20
2018-05-03T08:57:43.417Z,7.33
2018-05-03T09:00:12.647Z,6.67
2018-05-03T09:02:41.058Z,6.87
2018-05-03T09:05:09.330Z,6.23
2018-05-03T09:07:37.523Z,6.77
2018-05-03T09:10:05.629Z,6.80
2018-05-03T09:12:33.800Z,6.90
2018-05-03T09:15:03.240Z,6.27
2018-05-03T09:17:31.245Z,6.10
2018-05-03T09:19:59.300Z,6.70
2018-05-03T09:22:27.566Z,6.80
2018-05-03T09:24:55.811Z,7.83
2018-05-03T09:27:24.315Z,6.60
2018-05-03T09:29:52.615Z,6.80
2018-05-03T09:32:21.001Z,5.97
2018-05-03T09:34:49.095Z,7.03
2018-05-03T09:37:17.503Z,7.83
2018-05-03T09:39:45.987Z,5.97
2018-05-03T09:42:14.191Z,6.70
2018-05-03T09:44:42.450Z,6.13
2018-05-03T09:47:10.915Z,6.27
2018-05-03T09:49:39.078Z,6.43
2018-05-03T09:52:07.263Z,5.97
2018-05-03T09:54:35.469Z,5.87
2018-05-03T09:57:03.661Z,5.77
2018-05-03T09:59:31.802Z,6.10
2018-05-03T10:02:00.161Z,6.27
2018-05-03T10:04:28.451Z,6.17
2018-05-03T10:06:56.656Z,5.70
2018-05-03T10:09:24.943Z,5.13
2018-05-03T10:11:53.342Z,5.70
2018-05-03T10:14:21.651Z,6.10
2018-05-03T10:16:50.040Z,4.43
2018-05-03T10:19:18.560Z,5.80
2018-05-03T10:21:46.909Z,5.37
2018-05-03T10:24:15.424Z,5.10
2018-05-03T10:26:43.724Z,4.80
2018-05-03T10:29:11.835Z,5.77
2018-05-03T10:31:40.011Z,5.13
2018-05-03T10:34:08.223Z,5.27
2018-05-03T10:36:36.406Z,5.50
2018-05-03T10:39:04.462Z,5.90
2018-05-03T10:41:32.704Z,5.97
2018-05-03T10:44:01.084Z,4.27
2018-05-03T10:46:29.592Z,5.03
2018-05-03T10:48:57.885Z,5.43
2018-05-03T10:51:26.080Z,6.93
2018-05-03T10:53:54.379Z,4.80
2018-05-03T10:56:22.785Z,4.67
2018-05-03T10:58:51.102Z,5.13
2018-05-03T11:01:19.585Z,5.67
2018-05-03T11:03:47.886Z,6.00
2018-05-03T11:06:16.071Z,4.60
2018-05-03T11:08:44.261Z,4.90
2018-05-03T11:11:12.666Z,4.80
2018-05-03T11:13:40.948Z,5.00
2018-05-03T11:16:09.257Z,5.63
2018-05-03T11:18:37.370Z,4.70
2018-05-03T11:21:05.870Z,5.10
2018-05-03T11:23:34.157Z,4.67
2018-05-03T11:26:02.469Z,5.53
2018-05-03T11:28:30.896Z,5.10
2018-05-03T11:30:59.139Z,4.60
2018-05-03T11:33:27.556Z,5.10
2018-05-03T11:35:55.944Z,5.00
2018-05-03T11:38:24.244Z,5.80
2018-05-03T11:40:52.328Z,5.00
2018-05-03T11:43:20.636Z,5.10
2018-05-03T11:45:48.919Z,4.57
2018-05-03T11:48:17.536Z,5.03
2018-05-03T11:50:45.715Z,6.00
2018-05-03T11:53:13.915Z,5.10
2018-05-03T11:55:42.548Z,5.10
2018-05-03T11:58:10.716Z,5.43
2018-05-03T12:00:39.011Z,5.77
2018-05-03T12:03:07.195Z,5.13
2018-05-03T12:05:35.389Z,5.03
2018-05-03T12:08:03.586Z,4.93
2018-05-03T12:10:31.785Z,5.07
2018-05-03T12:13:00.096Z,5.00
2018-05-03T12:15:28.479Z,5.50
2018-05-03T12:17:56.673Z,6.20
2018-05-03T12:20:25.182Z,5.70
2018-05-03T12:22:53.469Z,4.80
2018-05-03T12:25:21.565Z,5.60
2018-05-03T12:27:49.653Z,4.97
2018-05-03T12:30:18.057Z,5.37
2018-05-03T12:32:46.450Z,4.93
2018-05-03T12:35:14.753Z,4.50
2018-05-03T12:37:42.884Z,5.40
2018-05-03T12:40:11.031Z,5.37
2018-05-03T12:42:39.447Z,4.53
2018-05-03T12:45:08.212Z,5.30
2018-05-03T12:47:36.549Z,5.53
2018-05-03T12:50:04.754Z,4.30
2018-05-03T12:52:33.248Z,5.07
2018-05-03T12:55:01.741Z,4.80
2018-05-03T12:57:30.150Z,5.77
2018-05-03T12:59:58.637Z,5.13
2018-05-03T13:02:26.834Z,5.07
2018-05-03T13:04:56.828Z,5.50
2018-05-03T13:07:25.150Z,5.07
2018-05-03T13:09:53.456Z,5.85
2018-05-03T13:12:21.766Z,5.43
2018-05-03T13:14:49.851Z,5.80
2018-05-03T13:17:18.345Z,6.57
2018-05-03T13:19:46.447Z,6.57
2018-05-03T13:22:14.536Z,5.53
2018-05-03T13:24:42.956Z,5.10
2018-05-03T13:27:11.233Z,5.60
2018-05-03T13:29:39.437Z,4.80
2018-05-03T13:32:08.637Z,5.43
2018-05-03T13:34:37.134Z,5.57
2018-05-03T13:37:05.328Z,6.30
2018-05-03T13:39:33.766Z,5.30
2018-05-03T13:42:02.446Z,5.30
2018-05-03T13:44:30.648Z,4.80
2018-05-03T13:46:59.029Z,4.60
2018-05-03T13:49:27.225Z,6.03
2018-05-03T13:51:55.326Z,5.20
2018-05-03T13:54:24.755Z,4.57
2018-05-03T13:56:53.123Z,5.70
2018-05-03T13:59:21.750Z,5.03
2018-05-03T14:01:51.018Z,6.07
2018-05-03T14:04:19.392Z,4.80
2018-05-03T14:06:47.763Z,5.50
2018-05-03T14:09:16.069Z,5.57
2018-05-03T14:11:44.350Z,5.43
2018-05-03T14:14:12.436Z,5.30
2018-05-03T14:16:40.530Z,4.30
2018-05-03T14:19:08.752Z,5.50
2018-05-03T14:21:37.027Z,4.80
2018-05-03T14:24:05.432Z,4.70
2018-05-03T14:26:33.859Z,5.43
2018-05-03T14:29:02.123Z,5.00
2018-05-03T14:31:30.441Z,5.17
2018-05-03T14:33:58.821Z,4.57
2018-05-03T14:36:27.109Z,6.03
2018-05-03T14:38:55.205Z,5.37
2018-05-03T14:41:23.403Z,4.57
2018-05-03T14:43:51.803Z,4.40
2018-05-03T14:46:20.274Z,5.93
2018-05-03T14:48:48.610Z,4.53
2018-05-03T14:51:17.231Z,4.80
2018-05-03T14:53:45.609Z,4.80
2018-05-03T14:56:13.808Z,4.37
2018-05-03T14:58:41.986Z,5.23
2018-05-03T15:01:10.186Z,4.47
2018-05-03T15:03:38.592Z,4.87
2018-05-03T15:06:06.989Z,5.10
2018-05-03T15:08:35.067Z,5.17
2018-05-03T15:11:03.270Z,4.47
2018-05-03T15:13:32.386Z,4.33
2018-05-03T15:16:00.872Z,4.70
2018-05-03T15:18:29.390Z,4.70
2018-05-03T15:20:58.004Z,5.40
2018-05-03T15:23:26.400Z,5.00
2018-05-03T15:25:54.592Z,4.60
2018-05-03T15:28:23.319Z,5.83
2018-05-03T15:30:51.662Z,4.63
2018-05-03T15:33:20.206Z,4.97
2018-05-03T15:35:48.666Z,5.00
2018-05-03T15:38:16.998Z,4.23
2018-05-03T15:40:45.406Z,4.57
2018-05-03T15:43:13.941Z,4.07
2018-05-03T15:45:42.582Z,5.20
2018-05-03T15:48:10.785Z,5.40
2018-05-03T15:50:38.978Z,4.93
2018-05-03T15:53:07.272Z,4.83
2018-05-03T15:55:35.816Z,6.07
2018-05-03T15:58:04.492Z,5.17
2018-05-03T16:00:32.785Z,6.50
2018-05-03T16:03:01.084Z,4.50
2018-05-03T16:05:29.580Z,4.33
2018-05-03T16:07:58.086Z,5.57
2018-05-03T16:10:26.422Z,5.60
2018-05-03T16:12:54.573Z,5.77
2018-05-03T16:15:23.197Z,4.70
2018-05-03T16:17:51.779Z,5.87
2018-05-03T16:20:19.975Z,5.70
2018-05-03T16:22:48.166Z,4.50
2018-05-03T16:25:16.473Z,5.43
2018-05-03T16:27:45.392Z,4.70
2018-05-03T16:30:14.074Z,5.70
2018-05-03T16:32:42.301Z,4.67
2018-05-03T16:35:10.803Z,6.00
2018-05-03T16:37:39.689Z,6.43
2018-05-03T16:40:07.876Z,5.60
2018-05-03T16:42:36.084Z,5.07
2018-05-03T16:45:04.460Z,5.07
2018-05-03T16:47:32.671Z,5.50
2018-05-03T16:50:00.966Z,5.73
2018-05-03T16:52:29.265Z,5.00
2018-05-03T16:54:57.664Z,6.13
2018-05-03T16:57:25.741Z,5.70
2018-05-03T16:59:53.961Z,5.43
2018-05-03T17:02:22.342Z,5.30
2018-05-03T17:04:50.640Z,5.63
2018-05-03T17:07:19.040Z,6.30
2018-05-03T17:09:47.450Z,5.53
2018-05-03T17:12:15.941Z,6.70
2018-05-03T17:14:44.648Z,5.47
2018-05-03T17:17:12.948Z,6.03
2018-05-03T17:19:41.550Z,5.43
2018-05-03T17:22:10.143Z,6.03
2018-05-03T17:24:38.356Z,5.83
2018-05-03T17:27:06.536Z,6.10
2018-05-03T17:29:34.734Z,4.97
2018-05-03T17:32:03.137Z,5.43
2018-05-03T17:34:31.430Z,4.83
2018-05-03T17:36:59.730Z,5.40
2018-05-03T17:39:27.928Z,7.60
2018-05-03T17:41:56.108Z,5.50
2018-05-03T17:44:24.536Z,5.23
2018-05-03T17:46:52.608Z,5.27
2018-05-03T17:49:21.465Z,5.20
2018-05-03T17:51:50.068Z,5.00
2018-05-03T17:54:18.312Z,5.50
2018-05-03T17:56:46.603Z,5.80
2018-05-03T17:59:14.809Z,5.77
2018-05-03T18:01:43.479Z,5.40
2018-05-03T18:04:12.044Z,6.30
2018-05-03T18:06:40.986Z,6.40
2018-05-03T18:09:09.534Z,7.05
2018-05-03T18:11:37.648Z,5.05
2018-05-03T18:14:05.911Z,6.18
2018-05-03T18:16:34.130Z,6.47
2018-05-03T18:19:03.652Z,4.75
2018-05-03T18:21:32.133Z,5.50
2018-05-03T18:24:00.748Z,6.28
2018-05-03T18:26:29.031Z,6.18
2018-05-03T18:28:57.129Z,6.82
2018-05-03T18:31:25.328Z,5.28
2018-05-03T18:33:53.636Z,6.18
2018-05-03T18:36:22.016Z,6.95
2018-05-03T18:38:50.218Z,5.72
2018-05-03T18:41:18.715Z,5.82
2018-05-03T18:43:47.113Z,6.30
2018-05-03T18:46:15.304Z,6.57
2018-05-03T18:48:43.329Z,6.95
2018-05-03T18:51:11.584Z,7.68
2018-05-03T18:53:39.805Z,7.80
2018-05-03T18:56:08.184Z,7.78
2018-05-03T18:58:36.585Z,8.30
2018-05-03T19:01:05.103Z,7.50
2018-05-03T19:03:33.271Z,6.97
2018-05-03T19:06:01.475Z,7.18
2018-05-03T19:08:30.072Z,7.32
2018-05-03T19:10:58.276Z,7.95
2018-05-03T19:13:26.571Z,6.57
2018-05-03T19:15:56.114Z,6.55
2018-05-03T19:18:25.246Z,7.40
2018-05-03T19:20:53.612Z,6.65
2018-05-03T19:23:21.775Z,7.32
2018-05-03T19:25:49.996Z,8.48
2018-05-03T19:28:18.406Z,7.40
2018-05-03T19:30:46.896Z,7.37
2018-05-03T19:33:15.195Z,7.15
2018-05-03T19:35:43.379Z,7.70
2018-05-03T19:38:11.804Z,8.18
2018-05-03T19:40:40.335Z,7.80
2018-05-03T19:43:08.595Z,9.13
2018-05-03T19:45:36.884Z,8.93
2018-05-03T19:48:05.058Z,7.80
2018-05-03T19:50:33.264Z,9.57
2018-05-03T19:53:01.368Z,9.77
2018-05-03T19:55:29.911Z,7.75
2018-05-03T19:57:58.466Z,8.18
2018-05-03T20:00:26.765Z,9.30
2018-05-03T20:02:54.815Z,9.18
2018-05-03T20:05:23.050Z,8.43
2018-05-03T20:07:51.251Z,7.68
2018-05-03T20:10:19.540Z,8.55
2018-05-03T20:12:47.844Z,9.43
2018-05-03T20:15:16.367Z,8.38
2018-05-03T20:17:44.645Z,7.35
2018-05-03T20:20:12.933Z,9.05
2018-05-03T20:22:41.109Z,8.20
2018-05-03T20:25:09.428Z,8.40
2018-05-03T20:27:37.594Z,8.35
2018-05-03T20:30:06.041Z,8.88
2018-05-03T20:32:34.424Z,8.68
2018-05-03T20:35:02.912Z,8.50
2018-05-03T20:37:31.107Z,8.50
2018-05-03T20:40:00.329Z,9.20
2018-05-03T20:42:28.637Z,8.75
2018-05-03T20:44:56.812Z,8.68
2018-05-03T20:47:25.115Z,8.80
2018-05-03T20:49:53.415Z,8.80
2018-05-03T20:52:21.832Z,8.45
2018-05-03T20:54:50.003Z,8.98
2018-05-03T20:57:18.394Z,9.20
2018-05-03T20:59:47.419Z,8.98
2018-05-03T21:02:15.727Z,8.90
2018-05-03T21:04:44.034Z,8.80
2018-05-03T21:07:12.322Z,8.70
2018-05-03T21:09:40.482Z,8.50
2018-05-03T21:12:08.696Z,8.55
2018-05-03T21:14:36.902Z,8.18
2018-05-03T21:17:05.172Z,9.48
2018-05-03T21:19:33.267Z,9.32
2018-05-03T21:22:01.551Z,9.45
2018-05-03T21:24:29.664Z,8.90
2018-05-03T21:26:57.868Z,10.15
2018-05-03T21:29:26.051Z,9.52
2018-05-03T21:31:54.236Z,8.75
2018-05-03T21:34:22.350Z,10.35
2018-05-03T21:36:50.743Z,9.90
2018-05-03T21:39:18.831Z,9.50
2018-05-03T21:41:47.117Z,9.77
2018-05-03T21:44:15.625Z,8.73
2018-05-03T21:46:43.860Z,9.35
2018-05-03T21:49:12.128Z,10.02
2018-05-03T21:51:40.300Z,8.07
2018-05-03T21:54:08.724Z,9.18
2018-05-03T21:56:37.430Z,9.45
2018-05-03T21:59:05.720Z,10.70
2018-05-03T22:01:33.808Z,10.32
2018-05-03T22:04:01.905Z,9.90
2018-05-03T22:06:30.092Z,10.40
2018-05-03T22:08:58.534Z,9.27
2018-05-03T22:11:26.885Z,9.95
2018-05-03T22:13:55.115Z,9.23
2018-05-03T22:16:23.396Z,8.60
2018-05-03T22:18:51.668Z,9.73
2018-05-03T22:21:20.015Z,8.65
2018-05-03T22:23:48.583Z,9.95
2018-05-03T22:26:16.863Z,10.63
2018-05-03T22:28:45.061Z,9.93
2018-05-03T22:31:13.374Z,9.90
2018-05-03T22:33:41.772Z,10.95
2018-05-03T22:36:10.060Z,10.07
2018-05-03T22:38:38.464Z,10.02
2018-05-03T22:41:06.587Z,9.32
2018-05-03T22:43:34.663Z,9.65
2018-05-03T22:46:02.854Z,9.07
2018-05-03T22:48:31.472Z,10.00
2018-05-03T22:50:59.959Z,9.70
2018-05-03T22:53:28.378Z,9.98
2018-05-03T22:55:57.013Z,9.48
2018-05-03T22:58:25.543Z,10.02
2018-05-03T23:00:53.645Z,9.50
2018-05-03T23:03:21.965Z,10.05
2018-05-03T23:05:50.657Z,8.95
2018-05-03T23:08:18.928Z,9.80
2018-05-03T23:10:47.343Z,10.43
2018-05-03T23:13:15.525Z,9.80
2018-05-03T23:15:43.846Z,10.88
2018-05-03T23:18:12.590Z,10.82
2018-05-03T23:20:40.623Z,9.40
2018-05-03T23:23:08.825Z,9.55
2018-05-03T23:25:37.138Z,10.18
2018-05-03T23:28:05.410Z,8.75
2018-05-03T23:30:33.523Z,9.55
2018-05-03T23:33:01.836Z,8.95
2018-05-03T23:35:30.103Z,10.20
2018-05-03T23:37:58.293Z,9.77
2018-05-03T23:40:26.509Z,10.10
2018-05-03T23:42:54.881Z,9.80
2018-05-03T23:45:23.308Z,9.50
2018-05-03T23:47:51.609Z,9.10
2018-05-03T23:50:20.131Z,10.00
2018-05-03T23:52:48.614Z,10.27
2018-05-03T23:55:17.328Z,9.50
2018-05-03T23:57:45.596Z,10.13
